createdAt,value
2023-03-21T00:01:35.407Z,5.50
2023-03-21T00:04:08.879Z,3.90
2023-03-21T00:06:40.024Z,4.80
2023-03-21T00:09:09.045Z,4.20
2023-03-21T00:11:38.276Z,5.40
2023-03-21T00:14:09.128Z,4.60
2023-03-21T00:16:41.617Z,4.80
2023-03-21T00:19:14.775Z,5.80
2023-03-21T00:22:05.465Z,4.60
2023-03-21T00:24:37.545Z,4.70
2023-03-21T00:27:39.413Z,5.00
2023-03-21T00:29:58.798Z,5.60
2023-03-21T00:32:31.135Z,4.00
2023-03-21T00:35:23.281Z,4.60
2023-03-21T00:37:50.598Z,4.50
2023-03-21T00:40:29.549Z,5.20
2023-03-21T00:43:04.657Z,4.50
2023-03-21T00:45:37.912Z,5.00
2023-03-21T00:48:09.598Z,5.40
2023-03-21T00:50:40.773Z,5.90
2023-03-21T00:53:10.505Z,4.50
2023-03-21T00:55:41.602Z,5.60
2023-03-21T00:58:11.568Z,6.10
2023-03-21T01:00:41.956Z,4.70
2023-03-21T01:03:24.320Z,5.40
2023-03-21T01:06:07.390Z,6.20
2023-03-21T01:08:53.022Z,11.40
2023-03-21T01:11:30.297Z,6.00
2023-03-21T01:14:18.653Z,14.20
2023-03-21T01:16:54.887Z,6.90
2023-03-21T01:19:44.752Z,6.70
2023-03-21T01:22:19.038Z,6.00
2023-03-21T01:25:02.924Z,7.10
2023-03-21T01:27:38.421Z,8.20
2023-03-21T01:30:19.052Z,7.30
2023-03-21T01:32:50.655Z,6.70
2023-03-21T01:35:21.635Z,7.00
2023-03-21T01:37:52.092Z,6.90
2023-03-21T01:40:26.364Z,7.20
2023-03-21T01:43:04.260Z,5.90
2023-03-21T01:46:12.591Z,6.10
2023-03-21T01:49:34.690Z,5.60
2023-03-21T01:52:39.426Z,7.50
2023-03-21T01:55:16.549Z,5.90
2023-03-21T01:58:12.776Z,5.10
2023-03-21T02:00:52.388Z,5.90
2023-03-21T02:03:38.888Z,10.90
2023-03-21T02:06:35.859Z,5.70
2023-03-21T02:09:15.306Z,5.70
2023-03-21T02:11:47.684Z,7.00
2023-03-21T02:14:28.916Z,7.10
2023-03-21T02:17:15.784Z,6.20
2023-03-21T02:20:25.658Z,6.50
2023-03-21T02:23:13.763Z,6.30
2023-03-21T02:26:40.875Z,5.90
2023-03-21T02:29:46.304Z,7.10
2023-03-21T02:32:37.381Z,5.70
2023-03-21T02:35:28.811Z,6.50
2023-03-21T02:38:18.496Z,4.70
2023-03-21T02:40:56.685Z,7.30
2023-03-21T02:43:47.839Z,7.80
2023-03-21T02:46:42.923Z,8.00
2023-03-21T02:49:22.830Z,10.60
2023-03-21T02:52:00.240Z,7.70
2023-03-21T02:54:47.486Z,7.10
2023-03-21T02:57:24.053Z,7.50
2023-03-21T03:00:02.458Z,8.90
2023-03-21T03:02:37.187Z,6.10
2023-03-21T03:05:21.503Z,7.40
2023-03-21T03:08:08.673Z,9.30
2023-03-21T03:10:58.020Z,7.90
2023-03-21T03:13:35.203Z,7.60
2023-03-21T03:16:22.314Z,7.30
2023-03-21T03:18:56.053Z,6.60
2023-03-21T03:21:39.883Z,6.30
2023-03-21T03:24:20.511Z,8.20
2023-03-21T03:27:00.896Z,7.50
2023-03-21T03:29:34.697Z,7.50
2023-03-21T03:32:40.607Z,6.60
2023-03-21T03:35:10.491Z,7.50
2023-03-21T03:37:44.898Z,9.20
2023-03-21T03:40:24.594Z,9.50
2023-03-21T03:43:09.332Z,8.60
2023-03-21T03:45:56.259Z,6.70
2023-03-21T03:48:31.038Z,7.40
2023-03-21T03:51:27.468Z,7.60
2023-03-21T03:54:25.254Z,8.70
2023-03-21T03:56:56.003Z,7.30
2023-03-21T03:59:27.832Z,8.80
2023-03-21T04:02:25.821Z,6.50
2023-03-21T04:04:58.362Z,8.10
2023-03-21T04:07:28.171Z,8.10
2023-03-21T04:10:00.158Z,9.80
2023-03-21T04:12:30.868Z,7.10
2023-03-21T04:15:14.630Z,7.50
2023-03-21T04:17:48.836Z,8.80
2023-03-21T04:20:30.310Z,7.30
2023-03-21T04:23:08.117Z,8.00
2023-03-21T04:25:47.653Z,9.30
2023-03-21T04:28:25.405Z,6.30
2023-03-21T04:31:13.563Z,10.40
2023-03-21T04:33:56.297Z,7.60
2023-03-21T04:36:29.183Z,7.90
2023-03-21T04:39:02.255Z,9.80
2023-03-21T04:41:33.939Z,8.60
2023-03-21T04:44:03.875Z,7.60
2023-03-21T04:46:33.622Z,8.60
2023-03-21T04:49:04.151Z,8.70
2023-03-21T04:51:35.372Z,9.10
2023-03-21T04:56:36.930Z,9.20
2023-03-21T04:59:12.425Z,10.60
2023-03-21T05:01:44.776Z,9.40
2023-03-21T05:04:16.985Z,8.90
2023-03-21T05:06:48.062Z,10.30
2023-03-21T05:09:19.035Z,10.10
2023-03-21T05:11:49.681Z,9.80
2023-03-21T05:14:24.120Z,16.20
2023-03-21T05:16:56.685Z,10.50
2023-03-21T05:19:35.906Z,11.50
2023-03-21T05:22:12.496Z,10.60
2023-03-21T05:24:43.678Z,12.80
2023-03-21T05:27:34.784Z,12.20
2023-03-21T05:30:17.825Z,10.70
2023-03-21T05:32:51.433Z,9.20
2023-03-21T05:35:22.183Z,11.00
2023-03-21T05:37:51.719Z,13.50
2023-03-21T05:40:24.189Z,13.10
2023-03-21T05:42:56.914Z,12.20
2023-03-21T05:45:27.649Z,9.00
2023-03-21T05:47:58.421Z,9.80
2023-03-21T05:50:29.958Z,9.40
2023-03-21T05:53:23.277Z,13.40
2023-03-21T05:55:54.746Z,11.60
2023-03-21T05:58:53.851Z,11.30
2023-03-21T06:01:25.282Z,11.20
2023-03-21T06:04:00.185Z,9.50
2023-03-21T06:06:32.114Z,11.80
2023-03-21T06:09:02.897Z,12.50
2023-03-21T06:11:40.323Z,10.60
2023-03-21T06:14:42.718Z,14.40
2023-03-21T06:17:25.544Z,14.30
2023-03-21T06:20:01.471Z,13.00
2023-03-21T06:22:36.849Z,16.00
2023-03-21T06:25:09.262Z,15.40
2023-03-21T06:27:39.348Z,15.00
2023-03-21T06:30:11.874Z,15.90
2023-03-21T06:32:48.332Z,15.30
2023-03-21T06:35:20.897Z,16.80
2023-03-21T06:37:49.799Z,16.20
2023-03-21T06:40:20.319Z,14.80
2023-03-21T06:42:50.182Z,15.40
2023-03-21T06:45:21.632Z,13.20
2023-03-21T06:47:53.428Z,11.90
2023-03-21T06:50:45.811Z,16.90
2023-03-21T06:53:19.870Z,13.70
2023-03-21T06:56:12.320Z,12.00
2023-03-21T06:58:45.723Z,14.30
2023-03-21T07:01:28.045Z,12.60
2023-03-21T07:04:05.276Z,13.00
2023-03-21T07:06:35.274Z,12.70
2023-03-21T07:09:06.363Z,12.20
2023-03-21T07:11:38.063Z,18.00
2023-03-21T07:14:39.477Z,13.30
2023-03-21T07:17:10.912Z,11.50
2023-03-21T07:19:40.594Z,12.20
2023-03-21T07:22:10.938Z,11.10
2023-03-21T07:24:41.118Z,14.20
2023-03-21T07:27:11.007Z,12.50
2023-03-21T07:29:42.036Z,11.30
2023-03-21T07:32:12.996Z,10.70
2023-03-21T07:34:44.776Z,10.30
2023-03-21T07:37:14.755Z,11.00
2023-03-21T07:39:49.268Z,10.60
2023-03-21T07:42:23.758Z,11.80
2023-03-21T07:45:00.390Z,10.00
2023-03-21T07:47:35.049Z,9.50
2023-03-21T07:50:06.684Z,10.50
2023-03-21T07:52:37.737Z,8.80
2023-03-21T07:55:10.003Z,10.60
2023-03-21T07:57:39.827Z,10.30
2023-03-21T08:00:11.279Z,12.20
2023-03-21T08:02:44.698Z,9.70
2023-03-21T08:05:15.092Z,9.80
2023-03-21T08:07:46.812Z,9.50
2023-03-21T08:10:20.349Z,8.50
2023-03-21T08:12:50.245Z,18.90
2023-03-21T08:15:23.372Z,12.00
2023-03-21T08:17:52.518Z,9.20
2023-03-21T08:20:24.406Z,10.80
2023-03-21T08:22:55.218Z,10.10
2023-03-21T08:25:25.159Z,9.00
2023-03-21T08:27:54.570Z,8.40
2023-03-21T08:30:27.639Z,7.80
2023-03-21T08:33:01.560Z,8.40
2023-03-21T08:35:32.278Z,9.00
2023-03-21T08:38:04.514Z,8.10
2023-03-21T08:40:35.687Z,7.70
2023-03-21T08:43:06.754Z,7.10
2023-03-21T08:45:38.264Z,7.80
2023-03-21T08:48:09.188Z,7.00
2023-03-21T08:50:41.779Z,5.60
2023-03-21T08:53:11.496Z,5.10
2023-03-21T08:55:42.569Z,4.70
2023-03-21T08:58:11.777Z,3.70
2023-03-21T09:00:43.653Z,3.90
2023-03-21T09:03:14.734Z,3.50
2023-03-21T09:05:48.245Z,3.90
2023-03-21T09:08:23.844Z,4.20
2023-03-21T09:10:57.285Z,4.60
2023-03-21T09:13:28.902Z,4.20
2023-03-21T09:16:47.569Z,4.40
2023-03-21T09:19:19.392Z,4.40
2023-03-21T09:24:21.475Z,3.80
2023-03-21T09:26:52.359Z,3.60
2023-03-21T09:29:23.787Z,3.80
2023-03-21T09:31:54.369Z,4.30
2023-03-21T09:34:26.807Z,4.20
2023-03-21T09:36:57.513Z,4.20
2023-03-21T09:39:27.999Z,4.40
2023-03-21T09:42:28.818Z,4.40
2023-03-21T09:45:25.289Z,5.80
2023-03-21T09:48:04.331Z,6.40
2023-03-21T09:50:43.013Z,7.10
2023-03-21T09:53:39.474Z,4.60
2023-03-21T09:56:14.226Z,4.90
2023-03-21T09:58:53.676Z,6.30
2023-03-21T10:01:33.261Z,4.80
2023-03-21T10:04:07.814Z,6.60
2023-03-21T10:06:41.594Z,5.20
2023-03-21T10:09:22.010Z,4.30
2023-03-21T10:12:21.458Z,5.10
2023-03-21T10:14:56.470Z,5.40
2023-03-21T10:17:50.854Z,4.60
2023-03-21T10:20:24.137Z,4.70
2023-03-21T10:22:57.242Z,4.10
2023-03-21T10:25:34.709Z,4.60
2023-03-21T10:28:08.904Z,3.80
2023-03-21T10:30:42.773Z,4.30
2023-03-21T10:33:25.180Z,3.80
2023-03-21T10:36:02.035Z,4.90
2023-03-21T10:38:34.269Z,3.60
2023-03-21T10:41:04.343Z,5.40
2023-03-21T10:43:39.451Z,4.60
2023-03-21T10:46:24.406Z,4.00
2023-03-21T10:48:55.090Z,4.80
2023-03-21T10:51:42.254Z,5.30
2023-03-21T10:54:26.455Z,4.50
2023-03-21T10:57:26.671Z,4.10
2023-03-21T11:00:25.097Z,4.40
2023-03-21T11:03:02.139Z,4.90
2023-03-21T11:05:46.179Z,4.20
2023-03-21T11:08:30.924Z,4.20
2023-03-21T11:11:17.073Z,3.70
2023-03-21T11:14:13.467Z,4.20
2023-03-21T11:16:48.741Z,5.60
2023-03-21T11:19:31.200Z,5.70
2023-03-21T11:22:12.958Z,6.00
2023-03-21T11:24:58.439Z,5.20
2023-03-21T11:27:38.489Z,9.20
2023-03-21T11:30:28.076Z,5.90
2023-03-21T11:33:05.197Z,4.60
2023-03-21T11:35:37.678Z,4.70
2023-03-21T11:38:31.275Z,4.30
2023-03-21T11:41:12.102Z,4.30
2023-03-21T11:43:57.733Z,3.80
2023-03-21T11:46:33.511Z,3.70
2023-03-21T11:49:04.837Z,4.80
2023-03-21T11:51:58.947Z,3.50
2023-03-21T11:54:59.546Z,5.30
2023-03-21T11:58:15.092Z,5.50
2023-03-21T12:01:07.815Z,3.70
2023-03-21T12:04:04.316Z,4.80
2023-03-21T12:06:49.766Z,5.20
2023-03-21T12:09:25.989Z,6.00
2023-03-21T12:12:38.349Z,5.60
2023-03-21T12:16:07.816Z,6.00
2023-03-21T12:19:01.706Z,5.20
2023-03-21T12:21:38.384Z,4.60
2023-03-21T12:24:27.310Z,3.80
2023-03-21T12:27:13.232Z,3.60
2023-03-21T12:30:07.793Z,3.90
2023-03-21T12:32:53.716Z,4.10
2023-03-21T12:35:33.680Z,5.10
2023-03-21T12:38:23.094Z,4.70
2023-03-21T12:41:56.920Z,4.10
2023-03-21T12:44:36.383Z,4.70
2023-03-21T12:47:16.019Z,6.40
2023-03-21T12:49:54.129Z,4.80
2023-03-21T12:52:41.736Z,4.50
2023-03-21T12:55:32.797Z,4.70
2023-03-21T12:58:08.228Z,5.50
2023-03-21T13:00:49.070Z,5.30
2023-03-21T13:03:40.456Z,4.80
2023-03-21T13:06:31.822Z,3.60
2023-03-21T13:09:38.518Z,3.90
2023-03-21T13:12:30.463Z,6.30
2023-03-21T13:15:52.187Z,3.80
2023-03-21T13:19:00.291Z,3.30
2023-03-21T13:21:52.466Z,3.50
2023-03-21T13:24:48.714Z,5.20
2023-03-21T13:27:27.803Z,4.20
2023-03-21T13:30:21.940Z,5.10
2023-03-21T13:32:57.798Z,3.60
2023-03-21T13:35:43.456Z,2.60
2023-03-21T13:38:27.097Z,3.80
2023-03-21T13:41:10.240Z,3.40
2023-03-21T13:43:58.016Z,3.00
2023-03-21T13:46:27.792Z,4.50
2023-03-21T13:49:14.403Z,4.60
2023-03-21T13:51:45.717Z,5.20
2023-03-21T13:54:14.797Z,4.70
2023-03-21T13:56:47.132Z,4.60
2023-03-21T13:59:40.282Z,4.10
2023-03-21T14:02:57.763Z,4.50
2023-03-21T14:05:29.174Z,5.90
2023-03-21T14:08:12.574Z,4.30
2023-03-21T14:10:49.717Z,7.30
2023-03-21T14:13:23.665Z,4.10
2023-03-21T14:16:20.600Z,4.40
2023-03-21T14:18:57.996Z,4.80
2023-03-21T14:21:35.152Z,4.30
2023-03-21T14:24:13.415Z,3.80
2023-03-21T14:26:51.506Z,4.40
2023-03-21T14:29:33.306Z,6.30
2023-03-21T14:32:05.547Z,4.80
2023-03-21T14:34:43.391Z,5.40
2023-03-21T14:37:15.722Z,5.70
2023-03-21T14:39:45.225Z,4.90
2023-03-21T14:42:17.182Z,5.60
2023-03-21T14:44:56.646Z,6.70
2023-03-21T14:47:29.107Z,5.80
2023-03-21T14:50:01.715Z,4.80
2023-03-21T14:52:35.263Z,6.40
2023-03-21T14:55:16.028Z,5.50
2023-03-21T14:57:45.492Z,6.50
2023-03-21T15:00:38.538Z,4.40
2023-03-21T15:03:09.051Z,4.80
2023-03-21T15:05:39.799Z,5.50
2023-03-21T15:08:14.766Z,4.80
2023-03-21T15:11:06.846Z,5.20
2023-03-21T15:14:00.814Z,4.50
2023-03-21T15:16:32.981Z,7.40
2023-03-21T15:19:06.475Z,7.20
2023-03-21T15:21:42.828Z,6.60
2023-03-21T15:24:24.199Z,5.60
2023-03-21T15:27:14.128Z,6.80
2023-03-21T15:29:47.998Z,8.80
2023-03-21T15:32:23.313Z,4.80
2023-03-21T15:34:58.687Z,6.30
2023-03-21T15:37:29.432Z,5.60
2023-03-21T15:40:12.449Z,5.50
2023-03-21T15:42:42.682Z,6.30
2023-03-21T15:45:21.882Z,6.20
2023-03-21T15:48:00.302Z,7.30
2023-03-21T15:50:36.969Z,6.00
2023-03-21T15:53:27.374Z,8.50
2023-03-21T15:56:06.303Z,10.90
2023-03-21T15:58:46.368Z,12.30
2023-03-21T16:01:22.519Z,10.60
2023-03-21T16:04:06.677Z,10.10
2023-03-21T16:06:39.979Z,6.80
2023-03-21T16:09:09.558Z,7.30
2023-03-21T16:11:50.553Z,22.20
2023-03-21T16:14:22.981Z,16.90
2023-03-21T16:16:54.066Z,28.20
2023-03-21T16:19:26.448Z,14.60
2023-03-21T16:21:56.021Z,12.40
2023-03-21T16:24:28.005Z,12.00
2023-03-21T16:27:01.126Z,16.20
2023-03-21T16:29:30.145Z,14.70
2023-03-21T16:32:06.495Z,20.20
2023-03-21T16:34:36.987Z,22.80
2023-03-21T16:37:08.499Z,22.10
2023-03-21T16:39:38.093Z,16.90
2023-03-21T16:42:11.153Z,15.80
2023-03-21T16:44:42.089Z,12.20
2023-03-21T16:47:21.163Z,46.50
2023-03-21T16:49:54.696Z,79.30
2023-03-21T16:52:26.394Z,16.90
2023-03-21T16:54:59.062Z,10.90
2023-03-21T16:57:30.732Z,14.70
2023-03-21T17:00:02.848Z,17.00
2023-03-21T17:02:33.003Z,49.80
2023-03-21T17:05:05.107Z,12.30
2023-03-21T17:07:42.281Z,14.30
2023-03-21T17:10:19.681Z,14.20
2023-03-21T17:12:52.508Z,13.20
2023-03-21T17:15:48.977Z,16.80
2023-03-21T17:18:21.611Z,18.60
2023-03-21T17:20:53.242Z,19.70
2023-03-21T17:23:25.205Z,18.80
2023-03-21T17:25:59.075Z,27.40
2023-03-21T17:28:34.426Z,84.00
2023-03-21T17:31:17.477Z,29.30
2023-03-21T17:33:51.010Z,72.90
2023-03-21T17:36:42.902Z,31.20
2023-03-21T17:39:22.754Z,41.00
2023-03-21T17:41:54.320Z,59.60
2023-03-21T17:44:27.048Z,92.30
2023-03-21T17:46:59.672Z,41.40
2023-03-21T17:49:32.374Z,72.50
2023-03-21T17:52:03.957Z,46.30
2023-03-21T17:54:33.859Z,39.50
2023-03-21T17:57:04.140Z,43.20
2023-03-21T17:59:36.600Z,21.40
2023-03-21T18:02:08.152Z,94.00
2023-03-21T18:04:42.684Z,157.40
2023-03-21T18:07:32.484Z,258.00
2023-03-21T18:10:24.906Z,111.20
2023-03-21T18:12:57.566Z,70.20
2023-03-21T18:15:59.931Z,69.60
2023-03-21T18:18:34.054Z,73.00
2023-03-21T18:21:07.089Z,78.10
2023-03-21T18:23:48.245Z,60.00
2023-03-21T18:26:31.283Z,74.00
2023-03-21T18:32:06.236Z,66.40
2023-03-21T18:34:40.553Z,51.90
2023-03-21T18:37:14.654Z,23.70
2023-03-21T18:39:47.247Z,36.40
2023-03-21T18:42:22.523Z,24.00
2023-03-21T18:44:55.706Z,26.70
2023-03-21T18:47:27.753Z,62.10
2023-03-21T18:50:13.749Z,22.90
2023-03-21T18:52:49.354Z,17.00
2023-03-21T18:55:44.247Z,15.30
2023-03-21T18:58:18.394Z,14.00
2023-03-21T19:00:54.392Z,19.30
2023-03-21T19:03:36.646Z,122.40
2023-03-21T19:06:10.700Z,20.10
2023-03-21T19:08:49.779Z,25.30
2023-03-21T19:11:22.891Z,30.50
2023-03-21T19:14:01.819Z,42.40
2023-03-21T19:16:56.450Z,35.70
2023-03-21T19:19:27.076Z,46.90
2023-03-21T19:22:02.552Z,48.30
2023-03-21T19:24:35.268Z,44.20
2023-03-21T19:27:07.710Z,32.80
2023-03-21T19:29:59.776Z,32.40
2023-03-21T19:32:40.568Z,25.20
2023-03-21T19:35:15.630Z,15.30
2023-03-21T19:37:49.899Z,9.80
2023-03-21T19:40:29.550Z,16.60
2023-03-21T19:43:29.914Z,9.70
2023-03-21T19:46:01.055Z,11.30
2023-03-21T19:48:35.916Z,10.60
2023-03-21T19:51:26.897Z,13.00
2023-03-21T19:54:01.501Z,11.10
2023-03-21T19:56:34.842Z,128.40
2023-03-21T19:59:08.556Z,66.90
2023-03-21T20:01:41.635Z,56.20
2023-03-21T20:04:16.081Z,83.60
2023-03-21T20:06:48.250Z,45.30
2023-03-21T20:12:13.938Z,21.50
2023-03-21T20:15:07.164Z,13.70
2023-03-21T20:17:46.379Z,17.00
2023-03-21T20:20:21.760Z,31.80
2023-03-21T20:23:15.871Z,17.40
2023-03-21T20:25:50.517Z,11.80
2023-03-21T20:28:27.148Z,18.30
2023-03-21T20:31:03.774Z,24.10
2023-03-21T20:33:38.262Z,26.70
2023-03-21T20:36:42.758Z,10.50
2023-03-21T20:39:08.216Z,7.90
2023-03-21T20:41:39.690Z,26.70
2023-03-21T20:47:20.619Z,48.90
2023-03-21T20:49:51.780Z,75.80
2023-03-21T20:53:00.836Z,57.60
2023-03-21T20:55:23.109Z,49.80
2023-03-21T20:58:01.919Z,24.60
2023-03-21T21:00:36.682Z,15.60
2023-03-21T21:03:09.048Z,15.30
2023-03-21T21:05:45.842Z,12.30
2023-03-21T21:08:21.384Z,12.50
2023-03-21T21:11:27.699Z,31.90
2023-03-21T21:13:45.853Z,26.10
2023-03-21T21:16:18.152Z,35.20
2023-03-21T21:18:49.644Z,28.80
2023-03-21T21:21:21.882Z,29.50
2023-03-21T21:23:55.439Z,31.10
2023-03-21T21:26:25.649Z,36.70
2023-03-21T21:28:54.556Z,39.60
2023-03-21T21:31:25.090Z,33.40
2023-03-21T21:33:55.872Z,30.80
2023-03-21T21:36:25.011Z,37.20
2023-03-21T21:38:56.533Z,35.60
2023-03-21T21:41:26.283Z,28.90
2023-03-21T21:43:57.447Z,29.00
2023-03-21T21:46:27.600Z,75.70
2023-03-21T21:48:59.968Z,50.40
2023-03-21T21:51:29.200Z,31.40
2023-03-21T21:54:04.774Z,39.80
2023-03-21T21:56:38.024Z,37.00
2023-03-21T21:59:10.458Z,36.80
2023-03-21T22:01:39.551Z,38.90
2023-03-21T22:04:11.890Z,32.20
2023-03-21T22:06:42.692Z,44.60
2023-03-21T22:09:14.331Z,43.30
2023-03-21T22:11:44.273Z,57.20
2023-03-21T22:14:14.939Z,42.60
2023-03-21T22:16:44.548Z,27.70
2023-03-21T22:19:14.420Z,29.70
2023-03-21T22:21:44.119Z,28.40
2023-03-21T22:24:13.865Z,38.90
2023-03-21T22:26:44.151Z,36.70
2023-03-21T22:29:13.443Z,37.00
2023-03-21T22:31:46.232Z,39.20
2023-03-21T22:34:16.747Z,39.10
2023-03-21T22:36:47.961Z,40.30
2023-03-21T22:39:20.514Z,49.60
2023-03-21T22:41:52.791Z,36.10
2023-03-21T22:44:23.682Z,38.50
2023-03-21T22:46:55.762Z,38.50
2023-03-21T22:49:27.231Z,39.50
2023-03-21T22:51:57.718Z,49.10
2023-03-21T22:54:28.324Z,43.90
2023-03-21T22:56:58.800Z,44.00
2023-03-21T22:59:29.893Z,40.10
2023-03-21T23:01:59.773Z,35.00
2023-03-21T23:04:30.116Z,30.50
2023-03-21T23:07:00.556Z,40.70
2023-03-21T23:09:35.037Z,32.70
2023-03-21T23:12:06.703Z,29.60
2023-03-21T23:14:36.490Z,34.50
2023-03-21T23:17:07.508Z,30.40
2023-03-21T23:19:37.016Z,31.50
2023-03-21T23:22:09.419Z,38.20
2023-03-21T23:24:38.702Z,31.70
2023-03-21T23:27:08.002Z,32.80
2023-03-21T23:29:40.626Z,44.60
2023-03-21T23:32:11.445Z,30.80
2023-03-21T23:34:41.620Z,26.90
2023-03-21T23:37:12.649Z,30.90
2023-03-21T23:39:42.882Z,29.20
2023-03-21T23:42:11.829Z,32.60
2023-03-21T23:44:44.826Z,31.40
2023-03-21T23:47:18.668Z,33.30
2023-03-21T23:49:50.477Z,34.60
2023-03-21T23:52:19.887Z,30.30
2023-03-21T23:54:49.984Z,27.10
2023-03-21T23:57:19.881Z,26.50
2023-03-21T23:59:50.250Z,28.10
